createdAt,value
2023-03-13T00:01:13.698Z,9.30
2023-03-13T00:03:41.676Z,9.30
2023-03-13T00:06:09.882Z,9.30
2023-03-13T00:08:38.115Z,9.40
2023-03-13T00:11:06.821Z,9.30
2023-03-13T00:13:34.784Z,9.40
2023-03-13T00:16:05.985Z,9.40
2023-03-13T00:18:34.426Z,9.30
2023-03-13T00:21:03.755Z,9.30
2023-03-13T00:23:32.603Z,9.30
2023-03-13T00:26:01.573Z,9.30
2023-03-13T00:28:32.620Z,9.30
2023-03-13T00:31:06.336Z,9.30
2023-03-13T00:33:34.949Z,9.40
2023-03-13T00:36:04.898Z,9.30
2023-03-13T00:38:33.589Z,9.40
2023-03-13T00:41:03.478Z,9.30
2023-03-13T00:43:31.664Z,9.30
2023-03-13T00:45:59.965Z,9.30
2023-03-13T00:48:29.434Z,9.30
2023-03-13T00:50:57.456Z,9.30
2023-03-13T00:53:25.461Z,9.30
2023-03-13T00:55:55.400Z,9.30
2023-03-13T00:58:24.156Z,9.30
2023-03-13T01:00:52.759Z,9.30
2023-03-13T01:03:21.624Z,9.20
2023-03-13T01:05:58.373Z,9.20
2023-03-13T01:08:26.371Z,9.20
2023-03-13T01:10:59.438Z,9.20
2023-03-13T01:13:27.658Z,9.20
2023-03-13T01:15:55.630Z,9.20
2023-03-13T01:18:23.876Z,9.20
2023-03-13T01:20:51.864Z,9.20
2023-03-13T01:23:21.133Z,9.20
2023-03-13T01:25:49.083Z,9.30
2023-03-13T01:28:17.065Z,9.30
2023-03-13T01:30:45.041Z,9.30
2023-03-13T01:33:12.996Z,9.30
2023-03-13T01:35:40.926Z,9.40
2023-03-13T01:38:09.040Z,9.40
2023-03-13T01:40:42.868Z,9.40
2023-03-13T01:43:26.427Z,9.40
2023-03-13T01:46:13.588Z,9.40
2023-03-13T01:48:47.162Z,9.40
2023-03-13T01:51:20.871Z,9.50
2023-03-13T01:53:52.647Z,9.50
2023-03-13T01:56:25.472Z,9.50
2023-03-13T01:58:54.587Z,9.60
2023-03-13T02:01:23.486Z,9.60
2023-03-13T02:03:52.260Z,9.60
2023-03-13T02:06:20.409Z,9.70
2023-03-13T02:08:52.997Z,9.70
2023-03-13T02:11:30.001Z,9.80
2023-03-13T02:13:59.950Z,9.80
2023-03-13T02:16:29.139Z,9.90
2023-03-13T02:18:57.353Z,9.90
2023-03-13T02:21:34.739Z,9.90
2023-03-13T02:24:09.321Z,9.90
2023-03-13T02:26:38.669Z,10.00
2023-03-13T02:29:06.582Z,10.00
2023-03-13T02:31:34.617Z,10.00
2023-03-13T02:34:03.618Z,10.00
2023-03-13T02:36:31.985Z,10.10
2023-03-13T02:39:03.878Z,10.10
2023-03-13T02:41:32.614Z,10.20
2023-03-13T02:44:01.851Z,10.20
2023-03-13T02:46:29.782Z,10.20
2023-03-13T02:48:59.156Z,10.30
2023-03-13T02:51:32.476Z,10.30
2023-03-13T02:54:03.979Z,10.30
2023-03-13T02:56:34.684Z,10.30
2023-03-13T02:59:04.259Z,10.30
2023-03-13T03:01:32.860Z,10.40
2023-03-13T03:04:00.794Z,10.40
2023-03-13T03:06:28.759Z,10.50
2023-03-13T03:08:56.724Z,10.50
2023-03-13T03:11:24.716Z,10.50
2023-03-13T03:13:52.606Z,10.60
2023-03-13T03:16:21.866Z,10.60
2023-03-13T03:18:49.854Z,10.60
2023-03-13T03:21:17.864Z,10.70
2023-03-13T03:23:45.725Z,10.70
2023-03-13T03:26:13.587Z,10.80
2023-03-13T03:28:41.462Z,10.80
2023-03-13T03:31:11.116Z,10.90
2023-03-13T03:33:41.015Z,10.90
2023-03-13T03:36:11.491Z,11.00
2023-03-13T03:38:39.845Z,11.00
2023-03-13T03:41:07.994Z,11.00
2023-03-13T03:43:36.434Z,11.00
2023-03-13T03:46:04.671Z,11.10
2023-03-13T03:48:32.999Z,11.10
2023-03-13T03:51:02.614Z,11.10
2023-03-13T03:53:30.786Z,11.10
2023-03-13T03:55:58.697Z,11.10
2023-03-13T03:58:26.804Z,11.20
2023-03-13T04:00:57.339Z,11.20
2023-03-13T04:03:25.484Z,11.20
2023-03-13T04:05:53.497Z,11.20
2023-03-13T04:08:22.883Z,11.20
2023-03-13T04:10:50.987Z,11.20
2023-03-13T04:13:19.064Z,11.20
2023-03-13T04:15:47.252Z,11.20
2023-03-13T04:18:16.496Z,11.20
2023-03-13T04:20:44.754Z,11.30
2023-03-13T04:23:12.757Z,11.30
2023-03-13T04:25:42.070Z,11.30
2023-03-13T04:28:10.354Z,11.30
2023-03-13T04:30:38.273Z,11.30
2023-03-13T04:33:06.327Z,11.30
2023-03-13T04:35:34.375Z,11.40
2023-03-13T04:38:02.695Z,11.40
2023-03-13T04:40:30.772Z,11.40
2023-03-13T04:42:59.988Z,11.40
2023-03-13T04:45:28.060Z,11.40
2023-03-13T04:47:56.101Z,11.40
2023-03-13T04:50:24.014Z,11.50
2023-03-13T04:52:52.053Z,11.40
2023-03-13T04:55:20.004Z,11.40
2023-03-13T04:57:47.911Z,11.40
2023-03-13T05:00:18.022Z,11.40
2023-03-13T05:02:45.938Z,11.50
2023-03-13T05:05:13.988Z,11.50
2023-03-13T05:07:41.929Z,11.50
2023-03-13T05:10:10.840Z,11.50
2023-03-13T05:12:38.706Z,11.50
2023-03-13T05:15:07.450Z,11.50
2023-03-13T05:17:36.708Z,11.50
2023-03-13T05:20:07.773Z,11.50
2023-03-13T05:22:35.736Z,11.50
2023-03-13T05:25:03.940Z,11.60
2023-03-13T05:27:32.015Z,11.60
2023-03-13T05:29:59.915Z,11.60
2023-03-13T05:32:27.806Z,11.60
2023-03-13T05:34:57.114Z,11.60
2023-03-13T05:37:25.200Z,11.60
2023-03-13T05:39:53.215Z,11.60
2023-03-13T05:42:21.164Z,11.70
2023-03-13T05:44:49.144Z,11.70
2023-03-13T05:47:18.311Z,11.70
2023-03-13T05:49:46.218Z,11.70
2023-03-13T05:52:15.684Z,11.70
2023-03-13T05:54:43.689Z,11.70
2023-03-13T05:57:11.545Z,11.70
2023-03-13T05:59:39.429Z,11.70
2023-03-13T06:02:07.300Z,11.70
2023-03-13T06:04:35.555Z,11.80
2023-03-13T06:07:03.486Z,11.80
2023-03-13T06:09:32.745Z,11.80
2023-03-13T06:12:00.722Z,11.80
2023-03-13T06:14:28.896Z,11.90
2023-03-13T06:16:57.064Z,11.90
2023-03-13T06:19:25.125Z,11.90
2023-03-13T06:21:53.298Z,11.90
2023-03-13T06:24:21.237Z,12.00
2023-03-13T06:26:51.398Z,12.00
2023-03-13T06:29:19.742Z,12.00
2023-03-13T06:31:47.823Z,12.00
2023-03-13T06:34:15.934Z,12.00
2023-03-13T06:36:43.912Z,12.10
2023-03-13T06:39:12.320Z,12.10
2023-03-13T06:41:40.444Z,12.10
2023-03-13T06:44:09.792Z,12.10
2023-03-13T06:46:37.686Z,12.10
2023-03-13T06:49:05.898Z,12.10
2023-03-13T06:51:33.881Z,12.10
2023-03-13T06:54:03.542Z,12.10
2023-03-13T06:56:32.214Z,12.10
2023-03-13T06:59:00.274Z,12.10
2023-03-13T07:01:29.659Z,12.10
2023-03-13T07:03:57.714Z,12.00
2023-03-13T07:06:26.898Z,12.00
2023-03-13T07:08:54.882Z,11.90
2023-03-13T07:11:22.954Z,11.90
2023-03-13T07:13:50.888Z,11.80
2023-03-13T07:16:18.913Z,11.80
2023-03-13T07:18:48.126Z,11.70
2023-03-13T07:21:16.475Z,11.70
2023-03-13T07:23:44.378Z,11.70
2023-03-13T07:26:14.941Z,11.70
2023-03-13T07:28:43.654Z,11.70
2023-03-13T07:31:13.498Z,11.70
2023-03-13T07:33:41.975Z,11.70
2023-03-13T07:36:12.433Z,11.70
2023-03-13T07:38:40.398Z,11.70
2023-03-13T07:41:08.421Z,11.70
2023-03-13T07:43:36.329Z,11.70
2023-03-13T07:46:06.250Z,11.70
2023-03-13T07:48:35.959Z,11.70
2023-03-13T07:51:05.647Z,11.70
2023-03-13T07:53:35.604Z,11.70
2023-03-13T07:56:05.590Z,11.70
2023-03-13T07:58:36.025Z,11.70
2023-03-13T08:01:09.987Z,11.70
2023-03-13T08:03:38.109Z,11.70
2023-03-13T08:06:08.767Z,11.70
2023-03-13T08:08:39.282Z,11.70
2023-03-13T08:11:12.839Z,11.70
2023-03-13T08:13:41.537Z,11.80
2023-03-13T08:16:11.605Z,11.80
2023-03-13T08:18:41.010Z,11.80
2023-03-13T08:21:10.460Z,11.90
2023-03-13T08:23:40.160Z,12.00
2023-03-13T08:26:09.672Z,12.00
2023-03-13T08:28:38.113Z,12.00
2023-03-13T08:31:10.500Z,12.00
2023-03-13T08:33:38.542Z,12.00
2023-03-13T08:36:14.180Z,12.00
2023-03-13T08:38:45.940Z,12.10
2023-03-13T08:41:16.061Z,12.10
2023-03-13T08:43:44.064Z,12.10
2023-03-13T08:46:12.061Z,12.10
2023-03-13T08:48:40.098Z,12.20
2023-03-13T08:51:10.081Z,12.20
2023-03-13T08:53:39.021Z,12.20
2023-03-13T08:56:11.407Z,12.20
2023-03-13T08:58:39.375Z,12.20
2023-03-13T09:01:09.195Z,12.20
2023-03-13T09:03:37.530Z,12.20
2023-03-13T09:06:05.880Z,12.30
2023-03-13T09:08:34.934Z,12.30
2023-03-13T09:11:04.245Z,12.40
2023-03-13T09:13:35.365Z,12.40
2023-03-13T09:16:04.718Z,12.50
2023-03-13T09:18:33.041Z,12.60
2023-03-13T09:21:01.006Z,12.70
2023-03-13T09:23:29.263Z,12.80
2023-03-13T09:25:58.881Z,12.80
2023-03-13T09:28:27.907Z,12.90
2023-03-13T09:30:57.238Z,13.10
2023-03-13T09:33:25.318Z,13.20
2023-03-13T09:35:53.301Z,13.30
2023-03-13T09:38:22.360Z,13.40
2023-03-13T09:41:05.300Z,13.40
2023-03-13T09:43:42.793Z,13.50
2023-03-13T09:46:17.182Z,13.50
2023-03-13T09:48:47.927Z,13.50
2023-03-13T09:51:19.261Z,13.60
2023-03-13T09:53:53.272Z,13.60
2023-03-13T09:56:24.836Z,13.70
2023-03-13T09:58:56.605Z,13.70
2023-03-13T10:01:31.202Z,13.70
2023-03-13T10:04:25.612Z,13.80
2023-03-13T10:06:54.272Z,13.80
2023-03-13T10:09:27.387Z,13.80
2023-03-13T10:12:05.265Z,13.90
2023-03-13T10:14:40.451Z,13.90
2023-03-13T10:17:21.050Z,13.90
2023-03-13T10:19:56.629Z,13.90
2023-03-13T10:22:27.718Z,14.00
2023-03-13T10:24:59.555Z,14.00
2023-03-13T10:27:27.978Z,14.10
2023-03-13T10:29:55.886Z,14.20
2023-03-13T10:32:25.313Z,14.20
2023-03-13T10:34:58.860Z,14.20
2023-03-13T10:37:29.740Z,14.30
2023-03-13T10:40:13.884Z,14.40
2023-03-13T10:42:45.922Z,14.50
2023-03-13T10:45:17.521Z,14.60
2023-03-13T10:47:47.220Z,14.60
2023-03-13T10:50:21.955Z,14.50
2023-03-13T10:52:50.792Z,14.60
2023-03-13T10:55:20.997Z,14.60
2023-03-13T10:57:58.305Z,14.60
2023-03-13T11:00:38.641Z,14.60
2023-03-13T11:03:17.815Z,14.70
2023-03-13T11:05:55.556Z,14.60
2023-03-13T11:08:25.896Z,14.60
2023-03-13T11:10:59.586Z,14.60
2023-03-13T11:13:38.054Z,14.50
2023-03-13T11:16:21.339Z,14.50
2023-03-13T11:19:18.100Z,14.50
2023-03-13T11:21:56.487Z,14.50
2023-03-13T11:24:30.049Z,14.50
2023-03-13T11:27:06.637Z,14.50
2023-03-13T11:29:43.715Z,14.50
2023-03-13T11:32:21.052Z,14.50
2023-03-13T11:34:55.024Z,14.60
2023-03-13T11:37:24.593Z,14.60
2023-03-13T11:40:00.677Z,14.70
2023-03-13T11:42:46.610Z,14.70
2023-03-13T11:45:32.964Z,14.80
2023-03-13T11:48:09.278Z,14.90
2023-03-13T11:50:45.052Z,15.00
2023-03-13T11:53:26.305Z,15.10
2023-03-13T11:56:14.311Z,15.10
2023-03-13T11:59:00.469Z,15.20
2023-03-13T12:01:31.066Z,15.10
2023-03-13T12:04:05.351Z,15.00
2023-03-13T12:06:38.413Z,15.00
2023-03-13T12:09:12.085Z,15.00
2023-03-13T12:11:44.633Z,15.10
2023-03-13T12:14:17.714Z,15.10
2023-03-13T12:16:49.448Z,15.20
2023-03-13T12:19:23.306Z,15.20
2023-03-13T12:21:58.486Z,15.20
2023-03-13T12:24:33.906Z,15.20
2023-03-13T12:27:12.240Z,15.20
2023-03-13T12:29:51.217Z,15.20
2023-03-13T12:32:23.271Z,15.10
2023-03-13T12:35:01.630Z,15.20
2023-03-13T12:37:40.311Z,15.20
2023-03-13T12:40:17.070Z,15.20
2023-03-13T12:42:52.405Z,15.20
2023-03-13T12:45:24.335Z,15.20
2023-03-13T12:48:18.944Z,15.20
2023-03-13T12:51:03.443Z,15.30
2023-03-13T12:54:10.198Z,15.30
2023-03-13T12:56:48.342Z,15.40
2023-03-13T12:59:20.462Z,15.50
2023-03-13T13:01:52.036Z,15.50
2023-03-13T13:04:22.376Z,15.50
2023-03-13T13:07:04.205Z,15.50
2023-03-13T13:09:33.675Z,15.50
2023-03-13T13:12:20.865Z,15.50
2023-03-13T13:15:11.867Z,15.50
2023-03-13T13:18:02.658Z,15.50
2023-03-13T13:20:42.510Z,15.50
2023-03-13T13:23:37.477Z,15.40
2023-03-13T13:26:39.546Z,15.30
2023-03-13T13:29:55.151Z,15.30
2023-03-13T13:32:47.143Z,15.40
2023-03-13T13:35:24.075Z,15.50
2023-03-13T13:37:52.471Z,15.50
2023-03-13T13:40:24.583Z,15.40
2023-03-13T13:42:55.051Z,15.40
2023-03-13T13:45:28.650Z,15.40
2023-03-13T13:48:26.558Z,15.30
2023-03-13T13:51:33.336Z,15.40
2023-03-13T13:54:02.697Z,15.30
2023-03-13T13:56:52.738Z,15.30
2023-03-13T13:59:42.027Z,15.30
2023-03-13T14:02:30.973Z,15.40
2023-03-13T14:05:06.896Z,15.30
2023-03-13T14:07:54.899Z,15.20
2023-03-13T14:10:37.564Z,15.10
2023-03-13T14:13:13.991Z,15.00
2023-03-13T14:15:46.638Z,14.90
2023-03-13T14:18:21.545Z,14.90
2023-03-13T14:21:01.742Z,14.80
2023-03-13T14:23:32.794Z,14.80
2023-03-13T14:26:09.426Z,14.80
2023-03-13T14:28:41.641Z,14.90
2023-03-13T14:31:11.985Z,14.90
2023-03-13T14:33:40.232Z,15.00
2023-03-13T14:36:09.994Z,14.90
2023-03-13T14:38:38.385Z,15.00
2023-03-13T14:41:06.535Z,15.10
2023-03-13T14:43:38.192Z,15.10
2023-03-13T14:46:16.476Z,15.10
2023-03-13T14:48:44.514Z,15.10
2023-03-13T14:51:21.765Z,15.10
2023-03-13T14:53:57.333Z,15.10
2023-03-13T14:56:34.089Z,15.10
2023-03-13T14:59:19.036Z,15.10
2023-03-13T15:01:47.576Z,15.10
2023-03-13T15:04:15.528Z,15.00
2023-03-13T15:06:44.909Z,15.00
2023-03-13T15:09:19.835Z,15.00
2023-03-13T15:11:56.887Z,14.90
2023-03-13T15:14:35.170Z,14.90
2023-03-13T15:17:04.253Z,14.90
2023-03-13T15:19:32.398Z,14.90
2023-03-13T15:22:01.680Z,15.00
2023-03-13T15:24:29.698Z,15.00
2023-03-13T15:26:57.650Z,15.00
2023-03-13T15:29:25.618Z,15.00
2023-03-13T15:31:53.649Z,15.00
2023-03-13T15:34:25.351Z,15.10
2023-03-13T15:36:53.236Z,15.30
2023-03-13T15:39:25.511Z,15.40
2023-03-13T15:41:54.103Z,15.50
2023-03-13T15:44:21.997Z,15.30
2023-03-13T15:46:49.881Z,15.10
2023-03-13T15:49:17.827Z,15.00
2023-03-13T15:51:45.692Z,14.80
2023-03-13T15:54:13.540Z,14.70
2023-03-13T15:56:42.954Z,14.90
2023-03-13T15:59:12.937Z,15.20
2023-03-13T16:01:41.186Z,15.40
2023-03-13T16:04:10.777Z,15.50
2023-03-13T16:06:38.971Z,15.70
2023-03-13T16:09:07.973Z,15.70
2023-03-13T16:11:35.934Z,15.40
2023-03-13T16:14:05.175Z,15.20
2023-03-13T16:16:37.528Z,14.90
2023-03-13T16:19:07.396Z,14.70
2023-03-13T16:21:36.167Z,14.50
2023-03-13T16:24:04.258Z,14.50
2023-03-13T16:26:33.370Z,14.40
2023-03-13T16:29:01.460Z,14.30
2023-03-13T16:31:32.748Z,14.30
2023-03-13T16:34:02.292Z,14.20
2023-03-13T16:36:32.201Z,14.10
2023-03-13T16:39:00.781Z,14.10
2023-03-13T16:41:29.995Z,14.00
2023-03-13T16:43:58.206Z,14.00
2023-03-13T16:46:32.448Z,14.00
2023-03-13T16:49:00.380Z,13.90
2023-03-13T16:51:29.673Z,13.80
2023-03-13T16:54:00.346Z,13.80
2023-03-13T16:56:31.362Z,13.80
2023-03-13T16:59:00.674Z,13.80
2023-03-13T17:01:30.581Z,13.70
2023-03-13T17:03:59.457Z,13.70
2023-03-13T17:06:29.877Z,13.60
2023-03-13T17:08:58.175Z,13.50
2023-03-13T17:11:26.351Z,13.50
2023-03-13T17:13:55.051Z,13.50
2023-03-13T17:16:30.227Z,13.40
2023-03-13T17:19:00.101Z,13.40
2023-03-13T17:21:30.001Z,13.30
2023-03-13T17:23:58.365Z,13.30
2023-03-13T17:26:28.329Z,13.30
2023-03-13T17:28:57.959Z,13.20
2023-03-13T17:31:27.458Z,13.20
2023-03-13T17:33:55.452Z,13.10
2023-03-13T17:36:27.065Z,13.10
2023-03-13T17:38:57.242Z,13.10
2023-03-13T17:41:26.530Z,13.10
2023-03-13T17:43:55.360Z,13.00
2023-03-13T17:46:25.505Z,12.90
2023-03-13T17:48:54.677Z,12.90
2023-03-13T17:51:25.977Z,12.90
2023-03-13T17:53:55.128Z,12.90
2023-03-13T17:56:24.879Z,12.90
2023-03-13T17:58:57.609Z,12.90
2023-03-13T18:01:27.628Z,12.80
2023-03-13T18:03:55.874Z,12.80
2023-03-13T18:06:27.415Z,12.80
2023-03-13T18:08:57.166Z,12.70
2023-03-13T18:11:26.988Z,12.70
2023-03-13T18:13:55.156Z,12.70
2023-03-13T18:16:26.907Z,12.70
2023-03-13T18:18:55.493Z,12.70
2023-03-13T18:21:25.371Z,12.70
2023-03-13T18:23:54.138Z,12.60
2023-03-13T18:26:25.245Z,12.70
2023-03-13T18:28:59.223Z,12.60
2023-03-13T18:31:31.003Z,12.60
2023-03-13T18:33:59.709Z,12.60
2023-03-13T18:36:29.739Z,12.60
2023-03-13T18:38:57.896Z,12.60
2023-03-13T18:41:26.085Z,12.60
2023-03-13T18:43:54.028Z,12.60
2023-03-13T18:46:23.456Z,12.60
2023-03-13T18:48:52.200Z,12.60
2023-03-13T18:51:24.098Z,12.50
2023-03-13T18:53:53.931Z,12.50
2023-03-13T18:56:23.816Z,12.50
2023-03-13T18:58:53.524Z,12.50
2023-03-13T19:01:23.551Z,12.50
2023-03-13T19:03:51.654Z,12.40
2023-03-13T19:06:23.618Z,12.40
2023-03-13T19:08:54.854Z,12.40
2023-03-13T19:11:25.031Z,12.40
2023-03-13T19:13:53.045Z,12.40
2023-03-13T19:16:23.080Z,12.30
2023-03-13T19:18:51.719Z,12.30
2023-03-13T19:21:22.178Z,12.30
2023-03-13T19:23:50.385Z,12.30
2023-03-13T19:26:27.689Z,12.20
2023-03-13T19:28:55.716Z,12.20
2023-03-13T19:31:24.620Z,12.20
2023-03-13T19:33:53.434Z,12.10
2023-03-13T19:36:23.045Z,12.10
2023-03-13T19:38:51.574Z,12.00
2023-03-13T19:41:20.794Z,12.00
2023-03-13T19:43:48.784Z,12.00
2023-03-13T19:46:23.207Z,12.00
2023-03-13T19:48:53.263Z,11.90
2023-03-13T19:51:21.235Z,11.90
2023-03-13T19:53:49.412Z,11.90
2023-03-13T19:56:21.040Z,12.00
2023-03-13T19:58:50.210Z,12.00
2023-03-13T20:01:18.602Z,12.00
2023-03-13T20:03:47.469Z,12.00
2023-03-13T20:06:18.436Z,12.00
2023-03-13T20:08:46.790Z,12.00
2023-03-13T20:11:15.061Z,12.00
2023-03-13T20:13:44.461Z,12.00
2023-03-13T20:16:13.344Z,12.00
2023-03-13T20:18:43.311Z,12.00
2023-03-13T20:21:11.600Z,12.00
2023-03-13T20:23:39.618Z,11.90
2023-03-13T20:26:09.743Z,11.90
2023-03-13T20:28:38.130Z,11.90
2023-03-13T20:31:08.107Z,11.90
2023-03-13T20:33:36.784Z,11.90
2023-03-13T20:36:07.425Z,11.80
2023-03-13T20:38:35.850Z,11.80
2023-03-13T20:41:04.247Z,11.80
2023-03-13T20:43:32.962Z,11.80
2023-03-13T20:46:01.013Z,11.70
2023-03-13T20:48:30.916Z,11.70
2023-03-13T20:51:00.960Z,11.70
2023-03-13T20:53:29.963Z,11.70
2023-03-13T20:55:57.937Z,11.70
2023-03-13T20:58:25.849Z,11.60
2023-03-13T21:00:53.796Z,11.60
2023-03-13T21:03:22.865Z,11.60
2023-03-13T21:05:52.153Z,11.60
2023-03-13T21:08:20.609Z,11.60
2023-03-13T21:10:48.551Z,11.50
2023-03-13T21:13:16.504Z,11.50
2023-03-13T21:15:44.425Z,11.40
2023-03-13T21:18:12.434Z,11.40
2023-03-13T21:20:40.423Z,11.30
2023-03-13T21:23:09.731Z,11.30
2023-03-13T21:25:37.627Z,11.30
2023-03-13T21:28:05.887Z,11.30
2023-03-13T21:30:34.282Z,11.30
2023-03-13T21:33:03.229Z,11.30
2023-03-13T21:35:31.206Z,11.30
2023-03-13T21:37:59.067Z,11.20
2023-03-13T21:40:28.842Z,11.10
2023-03-13T21:42:56.784Z,11.10
2023-03-13T21:45:24.742Z,11.00
2023-03-13T21:47:52.665Z,11.00
2023-03-13T21:52:53.652Z,11.00
2023-03-13T21:55:21.590Z,10.90
2023-03-13T21:57:50.959Z,10.90
2023-03-13T22:00:19.272Z,11.00
2023-03-13T22:02:47.216Z,10.90
2023-03-13T22:05:15.146Z,10.90
2023-03-13T22:07:43.052Z,10.90
2023-03-13T22:10:12.199Z,10.90
2023-03-13T22:12:40.183Z,10.90
2023-03-13T22:15:11.316Z,11.00
2023-03-13T22:17:39.257Z,11.00
2023-03-13T22:20:10.348Z,11.00
2023-03-13T22:22:38.313Z,10.90
2023-03-13T22:25:07.016Z,10.90
2023-03-13T22:27:35.188Z,11.00
2023-03-13T22:30:03.066Z,10.90
2023-03-13T22:32:32.346Z,10.90
2023-03-13T22:35:00.352Z,10.90
2023-03-13T22:37:28.509Z,10.90
2023-03-13T22:39:56.527Z,10.90
2023-03-13T22:42:25.046Z,10.90
2023-03-13T22:44:55.144Z,10.90
2023-03-13T22:47:24.661Z,11.00
2023-03-13T22:49:54.445Z,11.00
2023-03-13T22:52:28.794Z,11.10
2023-03-13T22:54:56.754Z,11.20
2023-03-13T22:57:25.104Z,11.20
2023-03-13T22:59:53.836Z,11.30
2023-03-13T23:02:21.928Z,11.30
2023-03-13T23:04:49.836Z,11.30
2023-03-13T23:07:19.081Z,11.40
2023-03-13T23:09:47.002Z,11.40
2023-03-13T23:12:14.878Z,11.40
2023-03-13T23:14:42.766Z,11.50
2023-03-13T23:17:10.839Z,11.50
2023-03-13T23:19:38.834Z,11.50
2023-03-13T23:22:06.760Z,11.60
2023-03-13T23:24:37.132Z,11.60
2023-03-13T23:27:05.204Z,11.60
2023-03-13T23:29:33.074Z,11.60
2023-03-13T23:32:00.957Z,11.60
2023-03-13T23:34:28.811Z,11.70
2023-03-13T23:36:57.977Z,11.60
2023-03-13T23:39:25.905Z,11.60
2023-03-13T23:41:55.189Z,11.60
2023-03-13T23:44:23.165Z,11.60
2023-03-13T23:46:51.155Z,11.60
2023-03-13T23:49:19.032Z,11.60
2023-03-13T23:51:46.954Z,11.50
2023-03-13T23:54:14.927Z,11.50
2023-03-13T23:56:42.874Z,11.50
2023-03-13T23:59:12.174Z,11.40
